Guyang, China
Current Conditions -  °F | °C
As of 12:00 AM on Saturday 01 Nov 2014 (Local Time) from ZBHH Reporting Station
Few Clouds Few Clouds  
Wind Chill: 34°   Ceiling: Unl
Heat Index: 37°   Visibility: 4mi
Dew Point: 37°   Wind: 4mph
Humidity: 100%   Direction: 80°E
Pressure: 30.21"   Gusts: NA
Location:  41.03°N, 110.05°E
Report Text: ZBHH 311600Z 08002MPS 6000 FEW040 03/03 Q1023 NOSIG
Loading
Personal Weather Stations






























Interactive Weather Map
Tropical Storm Tracking
New forecast layout! Learn more

10-Day Weather Forecast

Advertisements
Track Severe Weather on mobile